Time;durP1;ratioP1;P1;durP2;ratioP2;P2;SDS_P1;SDS_P2;PMS_P1;PMS_P2;Temp;Humidity;BMP_temperature;BMP_pressure;BME280_temperature;BME280_humidity;BME280_pressure;Samples;Min_cycle;Max_cycle;Signal;HPM_P1;HPM_P2
2021/03/09 00:00:00;;;;;;;36.75;19.05;;;4.20;99.90;;;;;;5012205;28;20080;-87
2021/03/09 00:02:25;;;;;;;31.98;18.70;;;4.20;99.90;;;;;;4993168;28;20210;-85
2021/03/09 00:04:51;;;;;;;29.33;17.35;;;4.20;99.90;;;;;;4975416;28;20049;-85
2021/03/09 00:07:16;;;;;;;31.85;17.77;;;4.10;99.90;;;;;;4975590;28;20148;-87
2021/03/09 00:09:42;;;;;;;33.50;17.90;;;4.20;99.90;;;;;;4992391;28;20041;-84
2021/03/09 00:12:08;;;;;;;32.97;17.33;;;4.10;99.90;;;;;;4992241;28;20050;-85
2021/03/09 00:14:33;;;;;;;34.28;16.67;;;4.10;99.90;;;;;;4973975;28;20033;-88
2021/03/09 00:16:59;;;;;;;28.10;15.18;;;4.10;99.90;;;;;;4973828;28;20038;-89
2021/03/09 00:19:24;;;;;;;29.83;16.90;;;4.10;99.90;;;;;;4974475;28;20059;-89
2021/03/09 00:21:50;;;;;;;29.77;15.52;;;4.10;99.90;;;;;;4974064;28;20492;-89
2021/03/09 00:24:16;;;;;;;27.02;14.25;;;4.00;99.90;;;;;;4994707;28;20089;-86
2021/03/09 00:26:42;;;;;;;25.20;14.25;;;4.00;99.90;;;;;;4993788;28;20093;-88
2021/03/09 00:29:07;;;;;;;22.13;12.95;;;4.00;99.90;;;;;;4994265;28;20041;-88
2021/03/09 00:31:33;;;;;;;25.52;13.43;;;4.00;99.90;;;;;;5012546;28;20034;-88
2021/03/09 00:33:59;;;;;;;26.23;13.80;;;4.10;99.90;;;;;;4994857;28;20056;-88
2021/03/09 00:36:24;;;;;;;23.75;13.70;;;4.10;99.90;;;;;;5012158;28;20049;-86
2021/03/09 00:38:50;;;;;;;26.05;15.05;;;4.10;99.90;;;;;;4987256;28;20440;-87
2021/03/09 00:41:15;;;;;;;26.05;14.77;;;4.10;99.90;;;;;;5012049;28;20042;-88
2021/03/09 00:43:41;;;;;;;30.67;16.38;;;4.10;99.90;;;;;;4979700;28;20522;-87
2021/03/09 00:46:06;;;;;;;31.70;16.23;;;4.00;99.90;;;;;;4974901;28;20089;-86
2021/03/09 00:48:36;;;;;;;32.88;18.15;;;4.00;99.90;;;;;;4975710;28;20041;-87
2021/03/09 00:51:02;;;;;;;28.02;15.40;;;4.00;99.90;;;;;;4993377;28;20085;-86
2021/03/09 00:53:28;;;;;;;29.13;15.32;;;4.00;99.90;;;;;;4975891;28;20046;-85
2021/03/09 00:55:53;;;;;;;29.23;15.57;;;4.00;99.90;;;;;;4979545;28;20062;-86
2021/03/09 00:58:19;;;;;;;32.28;18.42;;;4.00;99.90;;;;;;4996773;28;20101;-85
2021/03/09 01:00:44;;;;;;;31.00;17.38;;;4.00;99.90;;;;;;4981476;28;20030;-86
2021/03/09 01:03:10;;;;;;;29.02;17.35;;;4.00;99.90;;;;;;4983166;28;20038;-85
2021/03/09 01:05:35;;;;;;;34.15;18.20;;;4.00;99.90;;;;;;4980735;28;20451;-82
2021/03/09 01:08:01;;;;;;;27.70;15.52;;;4.00;99.90;;;;;;4998386;28;20051;-86
2021/03/09 01:10:27;;;;;;;34.50;17.65;;;4.00;99.90;;;;;;4980730;28;20041;-86
2021/03/09 01:12:52;;;;;;;35.03;19.85;;;4.00;99.90;;;;;;4998689;28;20026;-87
2021/03/09 01:15:18;;;;;;;39.60;20.17;;;4.00;99.90;;;;;;4998511;28;20052;-86
2021/03/09 01:17:43;;;;;;;42.92;21.45;;;4.00;99.90;;;;;;4981010;28;20038;-88
2021/03/09 01:20:09;;;;;;;36.53;20.80;;;4.00;99.90;;;;;;4981748;28;20480;-87
2021/03/09 01:22:35;;;;;;;40.80;22.50;;;4.00;99.90;;;;;;4996824;28;20500;-86
2021/03/09 01:25:02;;;;;;;43.67;23.10;;;4.00;99.90;;;;;;4997124;28;20037;-83
2021/03/09 01:27:28;;;;;;;39.42;21.52;;;4.00;99.90;;;;;;4980536;28;20042;-86
2021/03/09 01:29:53;;;;;;;42.42;22.58;;;4.00;99.90;;;;;;4979651;28;20366;-85
2021/03/09 01:32:19;;;;;;;40.88;22.05;;;3.90;99.90;;;;;;4981656;28;20033;-85
2021/03/09 01:34:44;;;;;;;40.42;22.05;;;3.90;99.90;;;;;;4990406;28;20030;-84
2021/03/09 01:37:10;;;;;;;43.03;22.98;;;4.00;99.90;;;;;;4985181;28;20084;-82
2021/03/09 01:39:36;;;;;;;45.13;23.75;;;3.90;99.90;;;;;;4993564;28;20049;-85
2021/03/09 01:42:02;;;;;;;45.47;23.77;;;3.90;99.90;;;;;;4987736;28;20109;-85
2021/03/09 01:44:28;;;;;;;46.90;25.15;;;3.90;99.90;;;;;;4991514;28;20026;-85
2021/03/09 01:46:55;;;;;;;49.95;27.30;;;3.90;99.90;;;;;;4990855;28;20510;-85
2021/03/09 01:49:21;;;;;;;46.53;25.75;;;3.90;99.90;;;;;;5005792;28;20500;-83
2021/03/09 01:51:48;;;;;;;50.38;27.48;;;3.90;99.90;;;;;;5003258;28;20035;-85
2021/03/09 01:54:14;;;;;;;46.40;26.23;;;3.90;99.90;;;;;;4988678;28;20023;-85
2021/03/09 01:56:41;;;;;;;51.08;26.17;;;3.90;99.90;;;;;;4985230;28;20376;-84
2021/03/09 01:59:07;;;;;;;61.17;31.15;;;3.90;99.90;;;;;;5010996;28;20054;-85
2021/03/09 02:01:34;;;;;;;68.15;33.20;;;3.90;99.90;;;;;;5008964;28;20034;-83
2021/03/09 02:04:00;;;;;;;56.22;29.20;;;3.90;99.90;;;;;;4999153;28;20022;-84
2021/03/09 02:06:26;;;;;;;59.67;30.45;;;3.90;99.90;;;;;;5015061;28;20455;-82
2021/03/09 02:08:52;;;;;;;58.80;30.52;;;3.90;99.90;;;;;;5016691;28;20042;-84
2021/03/09 02:11:33;;;;;;;59.38;31.25;;;3.90;99.90;;;;;;5016444;28;20030;-85
2021/03/09 02:14:06;;;;;;;54.70;29.17;;;3.90;99.90;;;;;;5016540;28;20073;-84
2021/03/09 02:16:46;;;;;;;61.67;31.77;;;3.90;99.90;;;;;;5016036;28;20030;-84
2021/03/09 02:19:51;;;;;;;60.75;31.83;;;3.90;99.90;;;;;;4998818;28;20045;-84
2021/03/09 02:22:31;;;;;;;58.10;29.42;;;3.90;99.90;;;;;;5015922;28;20038;-82
2021/03/09 02:25:16;;;;;;;52.25;28.75;;;3.90;99.90;;;;;;5015845;28;20038;-85
2021/03/09 02:28:11;;;;;;;54.03;28.45;;;3.90;99.90;;;;;;4998133;28;20052;-82
2021/03/09 02:30:46;;;;;;;62.60;32.97;;;3.90;99.90;;;;;;5015666;28;20099;-85
2021/03/09 02:33:19;;;;;;;60.83;32.45;;;3.90;99.90;;;;;;4998191;28;20040;-84
2021/03/09 02:36:03;;;;;;;57.25;30.70;;;3.90;99.90;;;;;;4997974;28;20032;-84
2021/03/09 02:38:35;;;;;;;62.47;32.67;;;3.90;99.90;;;;;;4998146;28;20038;-83
2021/03/09 02:41:02;;;;;;;60.53;32.60;;;4.00;99.90;;;;;;5015136;28;20046;-84
2021/03/09 02:43:30;;;;;;;61.30;32.78;;;3.90;99.90;;;;;;5015842;28;20080;-84
2021/03/09 02:45:58;;;;;;;63.80;33.03;;;3.90;99.90;;;;;;4997531;28;20451;-82
2021/03/09 02:48:26;;;;;;;58.40;31.40;;;3.90;99.90;;;;;;4997666;28;20038;-84
2021/03/09 02:50:54;;;;;;;70.55;34.20;;;3.90;99.90;;;;;;5015576;28;20441;-84
2021/03/09 02:53:22;;;;;;;65.32;33.90;;;4.00;99.90;;;;;;5015272;28;20081;-84
2021/03/09 02:55:50;;;;;;;65.93;33.55;;;3.90;99.90;;;;;;4997975;28;20038;-84
2021/03/09 02:58:18;;;;;;;65.70;34.50;;;4.00;99.90;;;;;;4997537;28;20030;-85
2021/03/09 03:00:45;;;;;;;63.85;32.88;;;4.00;99.90;;;;;;4997738;28;20033;-84
2021/03/09 03:03:15;;;;;;;65.03;33.28;;;4.00;99.90;;;;;;5015126;28;20391;-83
2021/03/09 03:05:42;;;;;;;71.28;36.90;;;4.00;99.90;;;;;;4997564;28;20091;-84
2021/03/09 03:08:09;;;;;;;73.78;37.60;;;4.00;99.90;;;;;;5015214;28;20041;-84
2021/03/09 03:10:36;;;;;;;71.30;37.30;;;4.00;99.90;;;;;;4997322;28;20042;-84
2021/03/09 03:13:06;;;;;;;67.38;33.53;;;4.00;99.90;;;;;;4997572;28;20060;-83
2021/03/09 03:15:33;;;;;;;65.40;33.83;;;4.00;99.90;;;;;;5014980;28;20034;-83
2021/03/09 03:18:00;;;;;;;70.82;38.10;;;4.00;99.90;;;;;;4997434;28;20184;-86
2021/03/09 03:20:27;;;;;;;69.93;38.85;;;4.10;99.90;;;;;;5015161;28;20117;-85
2021/03/09 03:22:55;;;;;;;72.68;37.95;;;4.10;99.90;;;;;;5015263;28;20030;-85
2021/03/09 03:25:22;;;;;;;76.55;36.92;;;4.00;99.90;;;;;;5014966;28;20110;-85
2021/03/09 03:27:49;;;;;;;76.05;40.95;;;4.00;99.90;;;;;;4997159;28;20124;-84
2021/03/09 03:30:16;;;;;;;77.28;41.72;;;4.00;99.90;;;;;;5015030;28;20052;-85
2021/03/09 03:32:42;;;;;;;78.30;43.13;;;4.00;99.90;;;;;;4997360;28;20034;-86
2021/03/09 03:35:11;;;;;;;80.95;43.75;;;4.00;99.90;;;;;;4997083;28;20029;-84
2021/03/09 03:37:39;;;;;;;81.15;43.65;;;4.00;99.90;;;;;;5014933;28;20026;-84
2021/03/09 03:40:10;;;;;;;77.72;41.10;;;4.00;99.90;;;;;;4997207;28;20033;-87
2021/03/09 03:42:37;;;;;;;86.47;46.28;;;4.00;99.90;;;;;;4997223;28;20026;-85
2021/03/09 03:45:04;;;;;;;86.18;45.53;;;4.00;99.90;;;;;;4997062;28;20053;-85
2021/03/09 03:47:29;;;;;;;103.25;50.45;;;4.00;99.90;;;;;;4996929;28;20056;-86
2021/03/09 03:49:55;;;;;;;96.80;48.92;;;4.10;99.90;;;;;;4996702;28;20518;-85
2021/03/09 03:52:39;;;;;;;89.07;46.58;;;4.10;99.90;;;;;;4996782;28;20061;-85
2021/03/09 03:55:42;;;;;;;91.93;45.70;;;4.10;99.90;;;;;;4996668;28;20033;-85
2021/03/09 03:58:49;;;;;;;92.43;47.75;;;4.10;99.90;;;;;;4996244;28;20065;-85
2021/03/09 04:01:18;;;;;;;90.50;46.10;;;4.10;99.90;;;;;;4995883;28;20046;-85
2021/03/09 04:03:45;;;;;;;86.85;46.30;;;4.10;99.90;;;;;;5014056;28;20092;-85
2021/03/09 04:06:12;;;;;;;88.72;47.22;;;4.10;99.90;;;;;;5013990;28;20154;-84
2021/03/09 04:08:39;;;;;;;100.25;50.92;;;4.10;99.90;;;;;;4996254;28;20152;-85
2021/03/09 04:11:05;;;;;;;111.80;56.92;;;4.10;99.90;;;;;;4996322;28;20040;-84
2021/03/09 04:13:33;;;;;;;98.10;52.05;;;4.10;99.90;;;;;;4996338;28;20034;-85
2021/03/09 04:16:01;;;;;;;95.53;49.85;;;4.10;99.90;;;;;;5013230;28;20116;-85
2021/03/09 04:18:28;;;;;;;94.57;50.30;;;4.10;99.90;;;;;;4996104;28;20030;-85
2021/03/09 04:20:54;;;;;;;97.72;51.35;;;4.10;99.90;;;;;;4995772;28;20034;-83
2021/03/09 04:23:21;;;;;;;107.85;54.45;;;4.10;99.90;;;;;;5013443;28;20037;-84
2021/03/09 04:25:47;;;;;;;100.57;53.70;;;4.10;99.90;;;;;;5013196;28;20088;-84
2021/03/09 04:28:14;;;;;;;107.50;55.13;;;4.10;99.90;;;;;;4995913;28;20119;-82
2021/03/09 04:30:40;;;;;;;100.55;52.47;;;4.10;99.90;;;;;;4995699;28;20159;-85
2021/03/09 04:33:06;;;;;;;102.05;53.25;;;4.10;99.90;;;;;;4996173;28;20034;-84
2021/03/09 04:35:32;;;;;;;104.75;53.95;;;4.10;99.90;;;;;;4996047;28;20030;-84
2021/03/09 04:37:59;;;;;;;101.18;54.13;;;4.10;99.90;;;;;;4996219;28;20182;-86
2021/03/09 04:40:25;;;;;;;105.88;55.65;;;4.10;99.90;;;;;;4995934;28;20034;-83
2021/03/09 04:42:50;;;;;;;102.65;53.13;;;4.10;99.90;;;;;;4995986;28;20388;-83
2021/03/09 04:45:17;;;;;;;105.85;56.60;;;4.10;99.90;;;;;;5013542;28;20038;-83
2021/03/09 04:47:43;;;;;;;113.20;59.28;;;4.10;99.90;;;;;;5013339;28;20042;-84
2021/03/09 04:50:12;;;;;;;106.43;55.53;;;4.10;99.90;;;;;;4995594;28;20034;-83
2021/03/09 04:52:38;;;;;;;104.88;53.85;;;4.20;99.90;;;;;;5012959;28;20484;-83
2021/03/09 04:55:05;;;;;;;101.60;53.28;;;4.10;99.90;;;;;;4995567;28;20034;-82
2021/03/09 04:57:42;;;;;;;107.88;56.70;;;4.10;99.90;;;;;;4995420;28;20044;-83
2021/03/09 05:00:13;;;;;;;109.20;57.40;;;4.20;99.90;;;;;;4995623;28;20407;-84
2021/03/09 05:02:39;;;;;;;115.50;59.65;;;4.20;99.90;;;;;;4995649;28;20462;-83
2021/03/09 05:05:06;;;;;;;117.40;59.97;;;4.20;99.90;;;;;;5012763;28;20034;-84
2021/03/09 05:07:31;;;;;;;121.35;61.85;;;4.20;99.90;;;;;;4995313;28;20045;-84
2021/03/09 05:09:57;;;;;;;116.88;62.30;;;4.20;99.90;;;;;;5012825;28;20409;-85
2021/03/09 05:12:22;;;;;;;127.65;64.43;;;4.20;99.90;;;;;;5012872;28;20061;-83
2021/03/09 05:14:48;;;;;;;113.90;58.10;;;4.20;99.90;;;;;;4995402;28;20443;-84
2021/03/09 05:17:14;;;;;;;113.60;61.92;;;4.20;99.90;;;;;;4995892;28;20499;-85
2021/03/09 05:19:39;;;;;;;110.70;56.25;;;4.20;99.90;;;;;;4996260;28;20048;-83
2021/03/09 05:22:06;;;;;;;120.20;61.10;;;4.20;99.90;;;;;;5013517;28;20038;-84
2021/03/09 05:24:31;;;;;;;116.05;60.55;;;4.20;99.90;;;;;;4995961;28;20034;-84
2021/03/09 05:26:57;;;;;;;114.88;57.08;;;4.20;99.90;;;;;;5013267;28;20129;-84
2021/03/09 05:29:22;;;;;;;124.45;62.67;;;4.20;99.90;;;;;;5013363;28;20070;-85
2021/03/09 05:31:48;;;;;;;118.57;61.00;;;4.20;99.90;;;;;;4995863;28;20061;-84
2021/03/09 05:34:14;;;;;;;112.95;59.97;;;4.20;99.90;;;;;;5013326;28;20053;-83
2021/03/09 05:36:39;;;;;;;111.45;58.42;;;4.20;99.90;;;;;;5013422;28;20041;-83
2021/03/09 05:39:05;;;;;;;110.97;57.33;;;4.30;99.90;;;;;;4995723;28;20072;-84
2021/03/09 05:41:31;;;;;;;118.05;61.83;;;4.30;99.90;;;;;;4997441;28;20381;-84
2021/03/09 05:43:57;;;;;;;115.10;59.85;;;4.30;99.90;;;;;;4999421;28;20129;-82
2021/03/09 05:46:22;;;;;;;129.15;68.82;;;4.30;99.90;;;;;;5016221;28;20048;-84
2021/03/09 05:48:48;;;;;;;117.70;63.78;;;4.20;99.90;;;;;;4998857;28;20030;-85
2021/03/09 05:51:14;;;;;;;126.15;66.13;;;4.20;99.90;;;;;;5016256;28;20068;-83
2021/03/09 05:53:40;;;;;;;122.63;65.10;;;4.20;99.90;;;;;;5015855;28;20037;-82
2021/03/09 05:56:07;;;;;;;108.95;57.65;;;4.30;99.90;;;;;;4998951;28;20387;-82
2021/03/09 05:58:33;;;;;;;111.70;58.78;;;4.30;99.90;;;;;;4991545;28;20480;-84
2021/03/09 06:00:59;;;;;;;114.50;61.65;;;4.30;99.90;;;;;;4979652;28;20045;-85
2021/03/09 06:03:26;;;;;;;128.90;69.50;;;4.30;99.90;;;;;;4995898;28;20042;-85
2021/03/09 06:05:52;;;;;;;140.75;74.25;;;4.30;99.90;;;;;;4978317;28;20042;-85
2021/03/09 06:08:17;;;;;;;132.05;71.95;;;4.30;99.90;;;;;;4978331;28;20507;-83
2021/03/09 06:10:44;;;;;;;142.70;75.28;;;4.30;99.90;;;;;;4989785;23;20073;-86
2021/03/09 06:13:29;;;;;;;143.23;77.75;;;4.30;99.90;;;;;;5002070;28;20030;-83
2021/03/09 06:15:55;;;;;;;133.50;73.60;;;4.30;99.90;;;;;;5104773;23;20077;-82
2021/03/09 06:18:25;;;;;;;133.07;71.72;;;4.30;99.90;;;;;;4993449;28;20034;-87
2021/03/09 06:21:13;;;;;;;142.45;75.68;;;4.40;99.90;;;;;;4977351;28;20141;-84
2021/03/09 06:23:40;;;;;;;136.65;73.28;;;4.40;99.90;;;;;;4977120;28;20031;-86
2021/03/09 06:26:40;;;;;;;134.38;72.55;;;4.40;99.90;;;;;;4978237;28;20038;-83
2021/03/09 06:29:14;;;;;;;142.27;73.45;;;4.40;99.90;;;;;;4995499;28;20045;-84
2021/03/09 06:31:40;;;;;;;;;;;4.40;99.90;;;;;;4978912;28;20046;-85
2021/03/09 06:34:24;;;;;;;154.10;80.38;;;4.40;99.90;;;;;;4979369;28;19905;-85
2021/03/09 06:37:19;;;;;;;157.07;83.60;;;4.40;99.90;;;;;;4978680;28;20046;-86
2021/03/09 06:39:56;;;;;;;148.55;77.57;;;4.40;99.90;;;;;;4976785;28;20117;-85
2021/03/09 06:42:25;;;;;;;135.43;72.10;;;4.40;99.90;;;;;;4995886;28;20049;-85
2021/03/09 06:44:57;;;;;;;138.75;73.00;;;4.40;99.90;;;;;;4978138;28;20093;-86
2021/03/09 06:47:45;;;;;;;137.32;68.57;;;4.40;99.90;;;;;;4995633;28;20057;-84
2021/03/09 06:50:12;;;;;;;125.38;64.22;;;4.40;99.90;;;;;;4995712;28;20076;-86
2021/03/09 06:52:42;;;;;;;128.70;67.18;;;4.50;99.90;;;;;;4978130;28;20049;-84
2021/03/09 06:55:12;;;;;;;134.77;68.97;;;4.50;99.90;;;;;;4995629;28;20027;-84
2021/03/09 06:58:01;;;;;;;123.22;67.93;;;4.50;99.90;;;;;;4978644;28;20399;-85
2021/03/09 07:00:27;;;;;;;136.90;71.05;;;4.50;99.90;;;;;;4995685;28;20444;-85
2021/03/09 07:02:52;;;;;;;145.95;74.80;;;4.60;99.90;;;;;;4995303;28;20034;-85
2021/03/09 07:05:18;;;;;;;138.90;71.18;;;4.60;99.90;;;;;;4978043;28;20034;-85
2021/03/09 07:07:43;;;;;;;125.85;66.40;;;4.60;99.90;;;;;;4995472;28;20376;-85
2021/03/09 07:10:15;;;;;;;138.52;72.07;;;4.60;99.90;;;;;;4977837;28;20038;-85
2021/03/09 07:12:48;;;;;;;124.18;67.78;;;4.60;99.90;;;;;;4995506;28;20069;-86
2021/03/09 07:15:18;;;;;;;146.82;73.95;;;4.60;99.90;;;;;;4977835;28;20107;-85
2021/03/09 07:17:46;;;;;;;137.05;71.05;;;4.60;99.90;;;;;;4958692;28;20447;-86
2021/03/09 07:20:14;;;;;;;130.75;70.82;;;4.70;99.90;;;;;;4958603;28;20074;-85
2021/03/09 07:22:41;;;;;;;135.98;70.03;;;4.70;99.90;;;;;;4958549;28;20074;-85
2021/03/09 07:25:11;;;;;;;127.00;68.15;;;4.70;99.90;;;;;;4958365;28;20481;-85
2021/03/09 07:27:50;;;;;;;119.38;65.35;;;4.70;99.90;;;;;;4975737;28;20604;-85
2021/03/09 07:30:18;;;;;;;113.75;61.13;;;4.80;99.90;;;;;;4975840;28;20089;-85
2021/03/09 07:32:48;;;;;;;105.72;59.92;;;4.80;99.90;;;;;;4959087;28;20497;-85
2021/03/09 07:35:15;;;;;;;102.07;55.35;;;4.80;99.90;;;;;;4959142;28;20063;-85
2021/03/09 07:37:41;;;;;;;98.43;51.90;;;4.80;99.90;;;;;;4975885;28;20401;-85
2021/03/09 07:40:12;;;;;;;102.05;53.25;;;4.90;99.90;;;;;;4975516;28;20069;-84
2021/03/09 07:42:38;;;;;;;94.68;52.03;;;4.90;99.90;;;;;;4975834;28;20054;-84
2021/03/09 07:45:08;;;;;;;94.55;50.55;;;4.90;99.90;;;;;;4976121;28;20039;-85
2021/03/09 07:47:35;;;;;;;87.75;47.50;;;5.00;99.90;;;;;;4976123;28;20051;-84
2021/03/09 07:50:01;;;;;;;88.93;47.50;;;5.00;99.90;;;;;;4958843;28;20031;-83
2021/03/09 07:52:27;;;;;;;90.07;47.38;;;5.00;99.90;;;;;;4958865;28;20034;-82
2021/03/09 07:55:02;;;;;;;86.30;45.83;;;5.10;99.90;;;;;;4975594;28;20114;-86
2021/03/09 07:57:29;;;;;;;77.32;42.33;;;5.10;99.90;;;;;;4958381;28;20034;-83
2021/03/09 08:00:00;;;;;;;83.30;42.55;;;5.20;99.90;;;;;;4957981;28;20085;-83
2021/03/09 08:02:39;;;;;;;73.75;38.80;;;5.20;99.90;;;;;;4957901;28;20488;-84
2021/03/09 08:05:07;;;;;;;77.68;38.97;;;5.30;99.90;;;;;;4973796;28;20055;-83
2021/03/09 08:07:56;;;;;;;78.47;39.38;;;5.30;99.90;;;;;;4957019;28;20049;-83
2021/03/09 08:10:34;;;;;;;72.00;37.55;;;5.40;99.90;;;;;;4974072;28;20038;-84
2021/03/09 08:13:10;;;;;;;67.93;34.65;;;5.50;99.90;;;;;;4957245;28;20524;-85
2021/03/09 08:15:38;;;;;;;66.80;35.58;;;5.50;99.90;;;;;;4959291;28;20110;-83
2021/03/09 08:18:21;;;;;;;62.75;33.50;;;5.50;99.90;;;;;;4976543;28;20089;-84
2021/03/09 08:20:54;;;;;;;;;;;5.60;99.90;;;;;;4977480;28;20061;-86
2021/03/09 08:23:31;;;;;;;61.70;32.20;;;5.60;99.90;;;;;;4976398;28;19916;-85
2021/03/09 08:26:03;;;;;;;54.13;30.30;;;5.60;99.90;;;;;;4993411;28;20042;-86
2021/03/09 08:28:40;;;;;;;57.38;30.23;;;5.60;99.90;;;;;;4976355;28;20035;-84
2021/03/09 08:31:14;;;;;;;53.50;28.67;;;5.70;99.90;;;;;;4993905;28;20044;-86
2021/03/09 08:33:48;;;;;;;53.47;29.70;;;5.70;99.90;;;;;;4994083;28;20034;-85
2021/03/09 08:39:12;;;;;;;47.67;26.35;;;5.80;99.90;;;;;;4993861;28;20030;-86
2021/03/09 08:41:37;;;;;;;45.72;23.83;;;5.90;99.90;;;;;;4993678;28;20035;-87
2021/03/09 08:46:55;;;;;;;33.75;18.85;;;6.00;99.90;;;;;;4994209;28;20137;-87
2021/03/09 08:49:36;;;;;;;32.15;16.95;;;6.00;99.90;;;;;;4976422;28;20042;-86
2021/03/09 08:52:18;;;;;;;29.08;15.07;;;6.00;99.90;;;;;;4976284;28;20034;-86
2021/03/09 08:54:45;;;;;;;28.33;14.38;;;6.00;99.90;;;;;;4976264;28;20485;-87
2021/03/09 08:57:10;;;;;;;24.50;12.90;;;6.10;99.90;;;;;;4976197;28;20381;-85
2021/03/09 08:59:37;;;;;;;20.58;12.10;;;6.10;99.90;;;;;;4993716;28;20109;-86
2021/03/09 09:02:27;;;;;;;21.88;11.02;;;6.20;99.90;;;;;;4993612;28;20058;-84
2021/03/09 09:05:04;;;;;;;18.40;10.50;;;6.20;99.90;;;;;;4975857;28;20438;-84
2021/03/09 09:07:31;;;;;;;18.35;10.10;;;6.20;99.90;;;;;;4976209;28;20057;-84
2021/03/09 09:09:59;;;;;;;16.80;9.32;;;6.30;99.90;;;;;;4976033;28;20027;-85
2021/03/09 09:12:31;;;;;;;15.55;8.68;;;6.40;99.90;;;;;;4993512;28;20040;-84
2021/03/09 09:15:15;;;;;;;14.68;8.63;;;6.40;99.90;;;;;;4976547;28;20038;-83
2021/03/09 09:18:08;;;;;;;13.57;8.60;;;6.40;99.90;;;;;;4997203;28;20052;-85
2021/03/09 09:20:37;;;;;;;14.75;8.25;;;6.40;99.90;;;;;;4997273;28;20082;-83
2021/03/09 09:23:07;;;;;;;10.43;6.82;;;6.40;99.90;;;;;;4979861;28;20049;-83
2021/03/09 09:25:35;;;;;;;13.98;7.22;;;6.40;99.90;;;;;;4979409;28;20042;-83
2021/03/09 09:28:01;;;;;;;13.63;6.93;;;6.40;99.90;;;;;;4979980;28;20511;-83
2021/03/09 09:30:37;;;;;;;14.25;7.15;;;6.50;99.90;;;;;;4997501;28;20030;-85
2021/03/09 09:33:05;;;;;;;12.70;6.78;;;6.50;99.90;;;;;;4979988;28;20130;-85
2021/03/09 09:35:32;;;;;;;12.23;7.93;;;6.60;99.90;;;;;;4996965;28;20492;-83
2021/03/09 09:38:12;;;;;;;10.80;6.68;;;6.70;99.90;;;;;;4996812;28;20023;-84
2021/03/09 09:40:39;;;;;;;13.13;6.78;;;6.80;99.90;;;;;;4979504;28;20034;-84
2021/03/09 09:43:18;;;;;;;11.50;6.65;;;6.90;99.90;;;;;;4997008;28;20472;-85
2021/03/09 09:45:45;;;;;;;9.35;5.32;;;7.00;99.90;;;;;;4979394;28;20540;-84
2021/03/09 09:48:23;;;;;;;10.95;5.78;;;7.00;99.90;;;;;;4996603;28;20065;-84
2021/03/09 09:50:50;;;;;;;8.50;4.95;;;7.00;99.90;;;;;;4996731;28;20031;-85
2021/03/09 09:53:36;;;;;;;7.60;5.15;;;6.90;99.90;;;;;;4979357;28;20036;-85
2021/03/09 09:56:04;;;;;;;10.18;4.93;;;6.90;99.90;;;;;;4979049;28;20492;-85
2021/03/09 09:59:02;;;;;;;9.70;4.75;;;7.00;99.90;;;;;;4996305;28;20031;-83
2021/03/09 10:01:37;;;;;;;8.05;5.10;;;7.10;99.90;;;;;;4968018;28;20034;-84
2021/03/09 10:04:07;;;;;;;7.57;4.35;;;7.10;99.90;;;;;;4978779;28;20125;-84
2021/03/09 10:06:47;;;;;;;8.10;4.47;;;7.10;99.90;;;;;;4974672;28;20130;-83
2021/03/09 10:09:24;;;;;;;6.38;3.75;;;7.20;99.90;;;;;;4995903;28;20605;-83
2021/03/09 10:11:54;;;;;;;6.72;4.00;;;7.40;99.90;;;;;;4995888;28;20034;-85
2021/03/09 10:14:23;;;;;;;7.45;4.40;;;7.50;99.90;;;;;;4996031;28;20045;-83
2021/03/09 10:16:48;;;;;;;7.80;3.47;;;7.40;99.90;;;;;;4996017;28;20060;-83
2021/03/09 10:19:18;;;;;;;5.97;3.58;;;7.40;99.90;;;;;;4995660;28;20109;-85
2021/03/09 10:21:51;;;;;;;5.85;3.85;;;7.30;99.90;;;;;;4996394;28;20038;-83
2021/03/09 10:24:21;;;;;;;9.27;3.70;;;7.20;99.90;;;;;;4979345;28;20432;-86
2021/03/09 10:26:48;;;;;;;8.00;3.58;;;7.10;99.90;;;;;;4995626;28;20043;-87
2021/03/09 10:29:19;;;;;;;6.00;3.13;;;7.00;99.90;;;;;;4995144;28;20545;-87
2021/03/09 10:31:55;;;;;;;6.20;3.78;;;6.90;99.90;;;;;;4978480;28;20034;-86
2021/03/09 10:34:38;;;;;;;4.80;3.00;;;6.80;99.90;;;;;;4996316;28;20548;-87
2021/03/09 10:37:04;;;;;;;5.72;3.45;;;6.80;99.90;;;;;;4996046;28;20019;-86
2021/03/09 10:39:32;;;;;;;5.47;3.20;;;6.80;99.90;;;;;;4978229;28;20038;-87
2021/03/09 10:42:20;;;;;;;5.03;3.53;;;6.80;99.90;;;;;;4978059;28;20073;-85
2021/03/09 10:44:45;;;;;;;4.90;3.00;;;6.80;99.90;;;;;;4977836;28;20076;-84
2021/03/09 10:47:12;;;;;;;6.22;2.90;;;6.80;99.90;;;;;;4995637;28;20070;-85
2021/03/09 10:49:38;;;;;;;6.00;2.45;;;6.80;99.90;;;;;;4978257;28;20027;-84
2021/03/09 10:52:08;;;;;;;5.78;2.42;;;6.90;99.90;;;;;;4978035;28;20093;-84
2021/03/09 10:54:35;;;;;;;4.35;2.30;;;6.80;99.90;;;;;;4996323;28;20065;-84
2021/03/09 10:57:09;;;;;;;4.10;2.22;;;6.90;99.90;;;;;;4995553;28;20482;-83
2021/03/09 10:59:35;;;;;;;2.50;1.80;;;6.90;99.90;;;;;;4977505;28;20037;-85
2021/03/09 11:02:01;;;;;;;3.08;1.77;;;6.90;99.90;;;;;;4977735;28;20034;-84
2021/03/09 11:04:27;;;;;;;4.10;1.80;;;7.00;99.90;;;;;;4994836;28;20103;-84
2021/03/09 11:06:52;;;;;;;3.20;1.70;;;7.00;99.90;;;;;;4977629;28;20092;-83
2021/03/09 11:09:18;;;;;;;3.55;1.70;;;7.10;99.90;;;;;;4995833;28;20045;-82
2021/03/09 11:11:44;;;;;;;2.60;1.70;;;7.10;99.90;;;;;;4994184;28;20369;-85
2021/03/09 11:14:10;;;;;;;3.60;1.60;;;7.10;99.90;;;;;;4977938;28;20124;-84
2021/03/09 11:16:36;;;;;;;3.92;1.70;;;7.10;99.90;;;;;;4994272;28;20061;-85
2021/03/09 11:19:02;;;;;;;3.80;1.50;;;7.10;99.90;;;;;;4994489;28;20034;-85
2021/03/09 11:21:28;;;;;;;2.85;1.33;;;7.10;99.90;;;;;;4977364;28;20061;-85
2021/03/09 11:23:54;;;;;;;3.40;1.52;;;7.10;99.90;;;;;;4977229;28;20480;-85
2021/03/09 11:26:22;;;;;;;4.22;1.60;;;7.10;99.90;;;;;;4976744;28;20042;-85
2021/03/09 11:28:48;;;;;;;6.00;2.20;;;7.10;99.90;;;;;;4976765;28;20038;-84
2021/03/09 11:31:14;;;;;;;2.95;2.00;;;7.20;99.90;;;;;;4993717;28;20042;-83
2021/03/09 11:33:40;;;;;;;3.88;1.80;;;7.20;99.90;;;;;;4994143;28;20035;-84
2021/03/09 11:36:06;;;;;;;2.78;1.60;;;7.30;99.90;;;;;;4989616;28;20117;-86
2021/03/09 11:38:32;;;;;;;2.70;1.52;;;7.40;99.90;;;;;;4976025;28;20027;-84
2021/03/09 11:40:58;;;;;;;3.30;1.63;;;7.50;99.90;;;;;;4980287;28;20036;-84
2021/03/09 11:43:23;;;;;;;4.60;1.88;;;7.50;99.90;;;;;;5000320;28;20054;-86
2021/03/09 11:45:49;;;;;;;2.95;1.60;;;7.50;99.90;;;;;;4994063;28;20046;-84
2021/03/09 11:48:15;;;;;;;3.70;1.60;;;7.40;99.90;;;;;;4975785;28;20106;-86
2021/03/09 11:50:40;;;;;;;4.10;1.30;;;7.30;99.90;;;;;;4993535;28;20124;-86
2021/03/09 11:53:06;;;;;;;3.00;0.90;;;7.20;99.90;;;;;;4974612;28;20034;-86
2021/03/09 11:55:32;;;;;;;4.32;1.00;;;7.00;99.90;;;;;;4975966;28;20023;-85
2021/03/09 11:57:58;;;;;;;2.67;0.82;;;6.90;99.90;;;;;;4993445;28;20667;-85
2021/03/09 12:00:24;;;;;;;3.80;0.80;;;6.80;99.90;;;;;;4993796;28;20041;-84
2021/03/09 12:02:50;;;;;;;0.80;0.60;;;6.80;99.90;;;;;;4975971;28;20049;-85
2021/03/09 12:05:15;;;;;;;3.33;0.70;;;6.70;99.90;;;;;;4984875;28;20039;-84
2021/03/09 12:07:42;;;;;;;1.98;0.80;;;6.70;99.90;;;;;;4980794;28;20042;-85
2021/03/09 12:10:09;;;;;;;1.52;0.60;;;6.70;99.90;;;;;;4986468;28;20073;-84
2021/03/09 12:12:35;;;;;;;0.90;0.70;;;6.80;99.90;;;;;;4983302;28;20122;-83
2021/03/09 12:15:00;;;;;;;4.22;0.98;;;6.90;99.90;;;;;;5003676;28;20117;-83
2021/03/09 12:17:26;;;;;;;2.08;0.90;;;7.00;99.90;;;;;;4999262;28;20054;-85
2021/03/09 12:19:52;;;;;;;2.25;0.90;;;7.10;99.90;;;;;;4998159;28;20030;-84
2021/03/09 12:22:17;;;;;;;3.35;0.80;;;7.30;99.90;;;;;;4981553;28;20404;-85
2021/03/09 12:24:43;;;;;;;1.15;0.82;;;7.40;99.90;;;;;;4998312;28;20033;-84
2021/03/09 12:27:08;;;;;;;1.77;0.90;;;7.50;99.90;;;;;;4975908;28;20043;-85
2021/03/09 12:29:34;;;;;;;1.65;0.80;;;7.60;99.90;;;;;;4998832;28;20041;-85
2021/03/09 12:32:00;;;;;;;1.70;0.90;;;7.70;99.90;;;;;;4994095;28;20054;-86
2021/03/09 12:34:25;;;;;;;3.10;0.90;;;7.80;99.90;;;;;;4989648;28;20416;-89
2021/03/09 12:36:51;;;;;;;2.35;0.70;;;7.70;99.90;;;;;;4992439;28;20040;-88
2021/03/09 12:39:17;;;;;;;1.20;0.70;;;7.70;99.90;;;;;;4977348;28;20033;-86
2021/03/09 12:41:42;;;;;;;1.67;0.73;;;7.70;99.90;;;;;;4988046;28;20041;-85
2021/03/09 12:44:08;;;;;;;1.52;0.60;;;7.70;99.90;;;;;;4992552;28;20034;-87
2021/03/09 12:46:33;;;;;;;0.90;0.60;;;7.60;99.90;;;;;;4974295;28;20043;-84
2021/03/09 12:48:59;;;;;;;1.23;0.50;;;7.50;99.90;;;;;;4996050;28;20049;-83
2021/03/09 12:51:25;;;;;;;2.13;0.65;;;7.50;99.90;;;;;;4981416;28;20026;-83
2021/03/09 12:53:50;;;;;;;1.40;0.63;;;7.50;99.90;;;;;;4990414;28;20077;-83
2021/03/09 12:56:16;;;;;;;2.60;0.70;;;7.40;99.90;;;;;;5005995;28;20076;-83